Time;durP1;ratioP1;P1;durP2;ratioP2;P2;SDS_P1;SDS_P2;PMS_P1;PMS_P2;Temp;Humidity;BMP_temperature;BMP_pressure;BME280_temperature;BME280_humidity;BME280_pressure;Samples;Min_cycle;Max_cycle;Signal;HPM_P1;HPM_P2
2024/01/30 00:02:21;;;;;;;12.32;5.75;;;7.00;99.90;;;;;;4956223;28;20031;-79
2024/01/30 00:04:47;;;;;;;12.48;5.90;;;;;;;;;;4957522;29;20062;-79
2024/01/30 00:07:13;;;;;;;14.90;6.55;;;7.10;99.90;;;;;;4958458;28;20028;-79
2024/01/30 00:09:41;;;;;;;10.93;5.43;;;7.10;99.90;;;;;;4956959;29;20020;-79
2024/01/30 00:12:07;;;;;;;13.43;5.85;;;7.10;99.90;;;;;;4958265;29;20030;-79
2024/01/30 00:14:33;;;;;;;13.18;5.75;;;7.10;99.90;;;;;;4956926;29;20387;-78
2024/01/30 00:16:58;;;;;;;11.93;5.95;;;7.10;99.90;;;;;;4956656;29;20126;-79
2024/01/30 00:19:24;;;;;;;19.40;7.38;;;7.10;99.90;;;;;;4957948;29;20031;-79
2024/01/30 00:21:50;;;;;;;8.77;4.40;;;7.70;99.90;;;;;;4955985;29;20404;-79
2024/01/30 00:24:15;;;;;;;12.85;5.32;;;7.50;99.90;;;;;;4958536;29;20054;-79
2024/01/30 00:26:41;;;;;;;8.55;4.97;;;7.10;99.90;;;;;;4957868;29;20038;-79
2024/01/30 00:29:06;;;;;;;9.02;4.95;;;9.50;99.90;;;;;;4957964;29;20361;-79
2024/01/30 00:31:32;;;;;;;11.98;6.10;;;7.10;99.90;;;;;;4956221;28;20027;-79
2024/01/30 00:33:58;;;;;;;10.52;4.88;;;7.10;99.90;;;;;;4957391;29;20028;-79
2024/01/30 00:36:24;;;;;;;12.40;5.85;;;7.10;99.90;;;;;;4957673;29;20086;-79
2024/01/30 00:38:50;;;;;;;10.68;5.63;;;;;;;;;;4956539;29;20030;-79
2024/01/30 00:41:19;;;;;;;10.13;5.50;;;7.10;99.90;;;;;;4958968;28;20035;-79
2024/01/30 00:43:44;;;;;;;11.85;5.28;;;7.10;99.90;;;;;;4956687;29;20124;-79
2024/01/30 00:46:10;;;;;;;13.23;5.72;;;7.10;99.90;;;;;;4955876;29;20027;-78
2024/01/30 00:48:36;;;;;;;11.07;5.35;;;7.10;99.90;;;;;;4956609;29;20118;-79
2024/01/30 00:51:02;;;;;;;11.70;5.43;;;7.20;99.90;;;;;;4957590;29;20019;-79
2024/01/30 00:53:27;;;;;;;11.65;4.88;;;7.10;99.90;;;;;;4957470;29;20019;-79
2024/01/30 00:55:53;;;;;;;11.23;4.85;;;7.20;99.90;;;;;;4956283;29;20059;-79
2024/01/30 00:58:19;;;;;;;11.10;5.18;;;8.10;99.90;;;;;;4957914;29;20046;-79
2024/01/30 01:00:45;;;;;;;10.80;5.20;;;7.40;99.90;;;;;;4956155;28;20035;-79
2024/01/30 01:03:10;;;;;;;12.68;5.53;;;7.10;99.90;;;;;;4957101;28;20083;-79
2024/01/30 01:05:36;;;;;;;11.85;5.43;;;7.10;99.90;;;;;;4955920;29;20027;-78
2024/01/30 01:08:01;;;;;;;16.60;5.93;;;7.10;99.90;;;;;;4956842;29;20054;-79
2024/01/30 01:10:28;;;;;;;12.30;5.03;;;7.00;99.90;;;;;;4957948;29;20023;-78
2024/01/30 01:12:53;;;;;;;10.82;4.72;;;7.00;99.90;;;;;;4957483;29;20503;-78
2024/01/30 01:15:19;;;;;;;12.50;4.85;;;7.00;99.90;;;;;;4959071;28;20035;-79
2024/01/30 01:17:45;;;;;;;14.15;5.07;;;7.00;99.90;;;;;;4960220;29;20499;-78
2024/01/30 01:20:12;;;;;;;13.05;5.10;;;8.10;99.90;;;;;;4961146;29;20028;-79
2024/01/30 01:22:41;;;;;;;11.77;5.63;;;6.90;99.90;;;;;;4959656;29;20035;-78
2024/01/30 01:25:08;;;;;;;12.38;5.28;;;6.90;99.90;;;;;;4959732;29;20050;-79
2024/01/30 01:27:34;;;;;;;14.60;5.05;;;6.80;99.90;;;;;;4960928;29;20031;-79
2024/01/30 01:30:00;;;;;;;10.05;4.00;;;6.80;99.90;;;;;;4960326;28;20042;-79
2024/01/30 01:32:26;;;;;;;10.32;4.70;;;7.10;99.90;;;;;;4959314;29;20106;-79
2024/01/30 01:34:51;;;;;;;10.60;4.40;;;6.80;99.90;;;;;;4960408;29;20054;-79
2024/01/30 01:37:17;;;;;;;12.10;5.00;;;6.80;99.90;;;;;;4960692;29;20023;-79
2024/01/30 01:39:43;;;;;;;14.32;5.75;;;6.80;99.90;;;;;;4958410;29;20023;-78
2024/01/30 01:42:09;;;;;;;14.38;5.70;;;6.80;99.90;;;;;;4960172;29;20035;-78
2024/01/30 01:44:34;;;;;;;11.13;4.93;;;6.80;99.90;;;;;;4958532;29;20033;-78
2024/01/30 01:47:00;;;;;;;8.73;4.93;;;6.80;99.90;;;;;;4959592;29;20074;-79
2024/01/30 01:49:27;;;;;;;11.73;5.18;;;6.70;99.90;;;;;;4960063;29;20114;-78
2024/01/30 01:51:56;;;;;;;14.65;5.25;;;6.70;99.90;;;;;;4959787;29;20027;-79
2024/01/30 01:54:22;;;;;;;;;;;6.70;99.90;;;;;;4959767;29;20019;-79
2024/01/30 01:56:48;;;;;;;11.85;4.97;;;6.60;99.90;;;;;;4960857;29;19906;-79
2024/01/30 01:59:14;;;;;;;10.35;4.85;;;6.70;99.90;;;;;;4958872;29;20542;-79
2024/01/30 02:01:41;;;;;;;10.75;4.43;;;6.70;99.90;;;;;;4960769;29;20045;-78
2024/01/30 02:04:07;;;;;;;11.75;4.57;;;6.70;99.90;;;;;;4960387;29;20046;-79
2024/01/30 02:06:35;;;;;;;9.93;4.93;;;6.60;99.90;;;;;;4958555;29;20031;-78
2024/01/30 02:09:01;;;;;;;12.15;4.90;;;6.60;99.90;;;;;;4958803;29;20046;-78
2024/01/30 02:11:26;;;;;;;14.27;5.25;;;6.60;99.90;;;;;;4959348;29;20463;-78
2024/01/30 02:13:52;;;;;;;9.50;5.25;;;8.30;99.90;;;;;;4959752;29;20087;-79
2024/01/30 02:16:18;;;;;;;13.00;5.15;;;6.60;99.90;;;;;;4958300;29;20035;-79
2024/01/30 02:18:47;;;;;;;12.18;4.80;;;7.70;99.90;;;;;;4959191;29;20031;-79
2024/01/30 02:21:13;;;;;;;9.65;5.43;;;6.60;99.90;;;;;;4959484;29;20476;-79
2024/01/30 02:23:40;;;;;;;12.30;4.85;;;6.60;99.90;;;;;;4958863;29;20070;-79
2024/01/30 02:26:06;;;;;;;12.68;5.05;;;7.40;99.90;;;;;;4958787;28;20034;-79
2024/01/30 02:28:32;;;;;;;9.35;5.05;;;7.60;99.90;;;;;;4959674;29;20027;-78
2024/01/30 02:30:57;;;;;;;9.82;5.03;;;6.60;99.90;;;;;;4958750;29;20016;-79
2024/01/30 02:33:23;;;;;;;10.18;4.75;;;7.80;99.90;;;;;;4958076;29;20035;-79
2024/01/30 02:35:49;;;;;;;12.60;5.68;;;6.60;99.90;;;;;;4958685;29;20027;-78
2024/01/30 02:38:15;;;;;;;12.70;5.43;;;6.70;99.90;;;;;;4959226;29;20039;-79
2024/01/30 02:40:41;;;;;;;9.52;4.65;;;6.60;99.90;;;;;;4958621;29;20439;-79
2024/01/30 02:43:06;;;;;;;10.18;4.80;;;6.60;99.90;;;;;;4959053;29;20054;-79
2024/01/30 02:45:32;;;;;;;10.93;4.78;;;6.50;99.90;;;;;;4958530;29;20050;-78
2024/01/30 02:47:58;;;;;;;12.05;5.00;;;6.60;99.90;;;;;;4959336;29;20064;-79
2024/01/30 02:50:23;;;;;;;7.78;4.25;;;6.50;99.90;;;;;;4957793;29;20024;-79
2024/01/30 02:52:49;;;;;;;10.15;4.60;;;6.60;99.90;;;;;;4958365;29;20472;-79
2024/01/30 02:55:17;;;;;;;11.73;5.15;;;6.60;99.90;;;;;;4957792;29;20027;-78
2024/01/30 02:57:43;;;;;;;9.32;4.38;;;6.60;99.90;;;;;;4957707;28;20023;-78
2024/01/30 03:00:09;;;;;;;8.55;4.40;;;6.60;99.90;;;;;;4959095;29;20035;-78
2024/01/30 03:02:35;;;;;;;10.57;5.15;;;6.60;99.90;;;;;;4957973;29;20403;-78
2024/01/30 03:05:01;;;;;;;13.75;5.00;;;6.60;99.90;;;;;;4957371;29;20079;-78
2024/01/30 03:07:27;;;;;;;10.80;4.93;;;6.60;99.90;;;;;;4957867;29;20500;-78
2024/01/30 03:09:52;;;;;;;9.73;4.95;;;6.60;99.90;;;;;;4956408;29;20159;-78
2024/01/30 03:12:18;;;;;;;11.75;4.78;;;7.60;99.90;;;;;;4956221;29;20019;-78
2024/01/30 03:14:43;;;;;;;13.15;5.05;;;7.80;99.90;;;;;;4956292;29;20047;-79
2024/01/30 03:17:09;;;;;;;11.73;5.75;;;6.60;99.90;;;;;;4956230;29;20031;-78
2024/01/30 03:19:35;;;;;;;10.48;4.68;;;6.70;99.90;;;;;;4956159;29;20027;-78
2024/01/30 03:22:00;;;;;;;8.98;4.68;;;6.70;99.90;;;;;;4956062;28;20090;-78
2024/01/30 03:24:26;;;;;;;11.55;4.55;;;6.70;99.90;;;;;;4957379;29;20037;-78
2024/01/30 03:26:52;;;;;;;12.95;5.35;;;6.70;99.90;;;;;;4955657;29;20037;-79
2024/01/30 03:29:17;;;;;;;11.05;5.15;;;7.50;99.90;;;;;;4957478;29;20107;-78
2024/01/30 03:31:43;;;;;;;10.13;4.13;;;6.70;99.90;;;;;;4955680;29;20047;-78
2024/01/30 03:34:08;;;;;;;14.45;6.07;;;6.90;99.90;;;;;;4956184;29;20023;-78
2024/01/30 03:36:34;;;;;;;10.20;5.43;;;6.70;99.90;;;;;;4956126;28;20499;-79
2024/01/30 03:39:00;;;;;;;11.38;5.03;;;6.80;99.90;;;;;;4955799;29;20023;-78
2024/01/30 03:41:26;;;;;;;11.95;4.57;;;6.80;99.90;;;;;;4957159;29;20543;-78
2024/01/30 03:43:52;;;;;;;11.13;5.32;;;6.80;99.90;;;;;;4955892;28;20122;-78
2024/01/30 03:46:17;;;;;;;10.60;5.10;;;6.90;99.90;;;;;;4957257;29;20040;-79
2024/01/30 03:48:43;;;;;;;12.30;5.32;;;6.90;99.90;;;;;;4955936;29;20055;-78
2024/01/30 03:51:14;;;;;;;12.50;6.55;;;6.90;99.90;;;;;;4956667;29;20365;-78
2024/01/30 03:53:40;;;;;;;15.40;6.43;;;6.90;99.90;;;;;;4956801;29;20074;-78
2024/01/30 03:56:06;;;;;;;13.30;6.13;;;7.00;99.90;;;;;;4955177;29;20028;-78
2024/01/30 03:58:32;;;;;;;15.85;6.47;;;7.00;99.90;;;;;;4955786;29;20023;-78
2024/01/30 04:00:57;;;;;;;17.15;6.22;;;6.90;99.90;;;;;;4955377;29;20051;-78
2024/01/30 04:03:23;;;;;;;16.02;6.88;;;7.10;99.90;;;;;;4955622;29;20082;-78
2024/01/30 04:05:48;;;;;;;16.15;7.05;;;7.00;99.90;;;;;;4955448;29;20034;-78
2024/01/30 04:08:15;;;;;;;12.75;6.55;;;7.40;99.90;;;;;;4960501;29;20090;-80
2024/01/30 04:10:41;;;;;;;15.15;7.57;;;7.00;99.90;;;;;;4962253;29;20039;-80
2024/01/30 04:13:07;;;;;;;15.75;7.32;;;7.10;99.90;;;;;;4962181;29;20027;-82
2024/01/30 04:15:32;;;;;;;16.40;6.82;;;7.10;99.90;;;;;;4964115;29;20466;-81
2024/01/30 04:18:01;;;;;;;17.17;7.15;;;7.20;99.90;;;;;;4963234;29;20031;-80
2024/01/30 04:20:27;;;;;;;14.60;6.88;;;;;;;;;;4962139;29;20034;-82
2024/01/30 04:22:53;;;;;;;16.58;7.57;;;7.20;99.90;;;;;;4961508;29;20546;-82
2024/01/30 04:25:19;;;;;;;18.63;7.57;;;7.20;99.90;;;;;;4960926;29;20028;-83
2024/01/30 04:27:44;;;;;;;12.38;6.43;;;7.10;99.90;;;;;;4962268;29;20105;-83
2024/01/30 04:30:10;;;;;;;20.70;8.27;;;7.20;99.90;;;;;;4962937;29;20458;-84
2024/01/30 04:32:39;;;;;;;14.60;6.78;;;7.20;99.90;;;;;;4962811;29;20026;-82
2024/01/30 04:35:05;;;;;;;15.85;6.57;;;6.90;99.90;;;;;;4962612;29;20026;-81
2024/01/30 04:37:31;;;;;;;15.10;7.78;;;7.20;99.90;;;;;;4962773;29;20019;-81
2024/01/30 04:39:57;;;;;;;16.08;6.75;;;8.40;99.90;;;;;;4962634;29;20503;-81
2024/01/30 04:42:23;;;;;;;15.50;6.95;;;7.60;99.90;;;;;;4962846;29;20015;-81
2024/01/30 04:44:49;;;;;;;12.40;7.18;;;8.70;99.90;;;;;;4961689;29;20500;-81
2024/01/30 04:47:15;;;;;;;15.73;6.18;;;7.20;99.90;;;;;;4963178;29;20033;-80
2024/01/30 04:49:41;;;;;;;17.65;6.43;;;7.40;99.90;;;;;;4964671;28;20067;-81
2024/01/30 04:52:07;;;;;;;13.68;6.80;;;7.20;99.90;;;;;;4966754;29;20023;-80
2024/01/30 04:54:33;;;;;;;10.93;5.85;;;8.10;99.90;;;;;;4966770;28;20070;-81
2024/01/30 04:56:59;;;;;;;15.68;6.55;;;7.20;99.90;;;;;;4965852;28;20031;-81
2024/01/30 04:59:24;;;;;;;18.13;6.15;;;7.20;99.90;;;;;;4967049;29;20034;-81
2024/01/30 05:01:50;;;;;;;18.02;6.68;;;7.20;99.90;;;;;;4967154;29;20024;-81
2024/01/30 05:04:16;;;;;;;10.93;5.93;;;7.20;99.90;;;;;;4966874;29;20098;-81
2024/01/30 05:06:42;;;;;;;14.20;6.35;;;7.20;99.90;;;;;;4964811;29;20028;-81
2024/01/30 05:09:09;;;;;;;13.88;7.05;;;7.20;99.90;;;;;;4967279;29;20024;-81
2024/01/30 05:11:38;;;;;;;12.10;5.93;;;7.20;99.90;;;;;;4966519;29;20087;-80
2024/01/30 05:14:04;;;;;;;10.93;4.93;;;7.30;99.90;;;;;;4965019;29;20409;-80
2024/01/30 05:16:30;;;;;;;12.15;5.88;;;7.30;99.90;;;;;;4966009;29;20051;-80
2024/01/30 05:18:56;;;;;;;13.50;5.90;;;7.30;99.90;;;;;;4965354;29;20031;-81
2024/01/30 05:21:22;;;;;;;10.15;4.97;;;7.30;99.90;;;;;;4966796;29;20557;-81
2024/01/30 05:23:47;;;;;;;9.98;4.93;;;7.30;99.90;;;;;;4965950;29;20031;-81
2024/01/30 05:26:13;;;;;;;15.85;5.30;;;8.00;99.90;;;;;;4964985;29;20067;-80
2024/01/30 05:28:38;;;;;;;11.05;4.80;;;7.50;99.90;;;;;;4965101;29;20023;-80
2024/01/30 05:31:04;;;;;;;12.65;4.88;;;7.40;99.90;;;;;;4965504;28;20043;-80
2024/01/30 05:33:29;;;;;;;10.60;4.18;;;7.50;99.90;;;;;;4964710;29;20027;-81
2024/01/30 05:35:55;;;;;;;9.43;4.75;;;8.30;99.90;;;;;;4965089;29;20487;-80
2024/01/30 05:38:21;;;;;;;9.05;5.30;;;7.50;99.90;;;;;;4965246;29;20062;-82
2024/01/30 05:40:46;;;;;;;8.43;4.40;;;7.60;99.90;;;;;;4948202;29;20035;-81
2024/01/30 05:43:12;;;;;;;11.90;4.38;;;7.60;99.90;;;;;;4964981;29;20030;-81
2024/01/30 05:45:38;;;;;;;12.32;5.40;;;7.50;99.90;;;;;;4963404;29;20031;-80
2024/01/30 05:48:04;;;;;;;10.93;4.65;;;7.50;99.90;;;;;;4969739;29;20015;-80
2024/01/30 05:50:30;;;;;;;11.82;5.60;;;7.50;99.90;;;;;;4974614;28;20030;-81
2024/01/30 05:52:56;;;;;;;13.45;4.38;;;7.70;99.90;;;;;;4974687;29;20091;-80
2024/01/30 05:55:21;;;;;;;13.35;4.95;;;7.60;99.90;;;;;;4973702;29;20019;-80
2024/01/30 05:57:47;;;;;;;16.08;5.55;;;7.50;99.90;;;;;;4966341;29;20067;-81
2024/01/30 06:00:13;;;;;;;7.85;4.07;;;7.60;99.90;;;;;;4963228;28;20030;-80
2024/01/30 06:02:39;;;;;;;11.57;5.25;;;7.60;99.90;;;;;;4964704;29;20024;-81
2024/01/30 06:05:05;;;;;;;8.60;3.75;;;7.60;99.90;;;;;;4966653;29;20046;-81
2024/01/30 06:07:31;;;;;;;12.77;4.50;;;7.60;99.90;;;;;;4964652;29;20047;-81
2024/01/30 06:10:03;;;;;;;12.07;4.80;;;7.60;99.90;;;;;;4965884;29;20023;-81
2024/01/30 06:12:29;;;;;;;8.95;4.43;;;7.60;99.90;;;;;;4963880;29;20023;-82
2024/01/30 06:14:56;;;;;;;7.00;3.80;;;7.60;99.90;;;;;;4964305;28;20125;-81
2024/01/30 06:17:22;;;;;;;7.68;3.97;;;7.60;99.90;;;;;;4964321;29;20020;-81
2024/01/30 06:19:48;;;;;;;7.05;3.45;;;7.70;99.90;;;;;;4965840;29;20023;-81
2024/01/30 06:22:14;;;;;;;9.35;4.03;;;7.70;99.90;;;;;;4965193;28;20103;-82
2024/01/30 06:24:39;;;;;;;10.00;4.38;;;7.70;99.90;;;;;;4966399;29;20024;-82
2024/01/30 06:27:05;;;;;;;9.02;3.03;;;8.10;99.90;;;;;;4964642;29;20051;-82
2024/01/30 06:29:31;;;;;;;9.38;4.10;;;7.70;99.90;;;;;;4963407;29;20027;-81
2024/01/30 06:31:57;;;;;;;7.30;3.58;;;7.70;99.90;;;;;;4963781;28;20052;-82
2024/01/30 06:34:22;;;;;;;14.50;3.65;;;7.80;99.90;;;;;;4965777;29;20016;-79
2024/01/30 06:36:48;;;;;;;9.73;3.67;;;7.80;99.90;;;;;;4969167;29;20127;-79
2024/01/30 06:39:14;;;;;;;10.05;3.63;;;7.80;99.90;;;;;;4970858;29;20070;-78
2024/01/30 06:41:39;;;;;;;10.50;4.43;;;7.80;99.90;;;;;;4969328;29;20058;-79
2024/01/30 06:44:08;;;;;;;9.32;4.18;;;7.80;99.90;;;;;;4968405;29;20031;-79
2024/01/30 06:46:35;;;;;;;8.55;3.63;;;7.70;99.90;;;;;;4969459;29;20087;-79
2024/01/30 06:49:01;;;;;;;12.52;4.80;;;7.90;99.90;;;;;;4973914;29;20027;-80
2024/01/30 06:51:26;;;;;;;9.13;3.95;;;7.90;99.90;;;;;;4973832;29;20047;-80
2024/01/30 06:53:52;;;;;;;9.52;3.75;;;7.90;99.90;;;;;;4961751;29;20023;-79
2024/01/30 06:56:20;;;;;;;9.85;3.17;;;8.80;99.90;;;;;;4969126;29;20550;-83
2024/01/30 06:58:50;;;;;;;10.50;4.00;;;8.00;99.90;;;;;;4974446;29;20031;-82
2024/01/30 07:01:16;;;;;;;10.73;3.20;;;8.10;99.90;;;;;;4974508;29;20034;-82
2024/01/30 07:03:43;;;;;;;8.02;3.63;;;8.20;99.90;;;;;;4973291;29;20443;-81
2024/01/30 07:06:13;;;;;;;7.88;3.13;;;8.30;99.90;;;;;;4973267;29;20086;-82
2024/01/30 07:08:39;;;;;;;14.50;3.97;;;8.40;99.90;;;;;;4974360;29;20050;-81
2024/01/30 07:11:07;;;;;;;9.60;3.72;;;8.70;99.90;;;;;;4974047;29;20015;-81
2024/01/30 07:13:34;;;;;;;10.50;3.42;;;8.50;99.90;;;;;;4973581;28;20090;-81
2024/01/30 07:16:00;;;;;;;12.13;3.95;;;8.60;99.90;;;;;;4973740;29;20055;-81
2024/01/30 07:18:26;;;;;;;9.45;3.63;;;8.70;99.90;;;;;;4973247;29;20023;-81
2024/01/30 07:20:52;;;;;;;8.68;3.67;;;8.80;99.90;;;;;;4972950;29;20034;-81
2024/01/30 07:23:17;;;;;;;11.73;3.30;;;8.80;99.90;;;;;;4973052;29;20031;-81
2024/01/30 07:25:48;;;;;;;9.90;3.45;;;8.90;99.90;;;;;;4973088;29;20455;-81
2024/01/30 07:28:16;;;;;;;8.95;4.03;;;9.40;99.90;;;;;;4973470;29;20027;-79
2024/01/30 07:30:42;;;;;;;11.43;3.65;;;9.00;99.90;;;;;;4972552;29;20012;-81
2024/01/30 07:33:08;;;;;;;10.07;3.28;;;9.00;99.90;;;;;;4973140;29;20047;-81
2024/01/30 07:35:34;;;;;;;10.15;3.92;;;9.00;99.90;;;;;;4974481;29;20031;-81
2024/01/30 07:38:00;;;;;;;9.30;3.58;;;9.20;99.90;;;;;;4973128;28;20028;-81
2024/01/30 07:40:26;;;;;;;7.82;3.40;;;9.10;99.90;;;;;;4973049;29;20035;-80
2024/01/30 07:42:53;;;;;;;14.15;3.35;;;9.20;99.90;;;;;;4972275;29;20054;-81
2024/01/30 07:45:24;;;;;;;6.57;3.22;;;10.40;99.90;;;;;;4972269;29;20027;-80
2024/01/30 07:47:50;;;;;;;7.00;3.45;;;9.30;99.90;;;;;;4972847;29;20038;-81
2024/01/30 07:50:16;;;;;;;8.98;3.33;;;9.40;99.90;;;;;;4972314;29;20051;-81
2024/01/30 07:52:42;;;;;;;8.10;3.88;;;9.40;99.90;;;;;;4973700;29;20027;-81
2024/01/30 07:55:09;;;;;;;8.35;3.33;;;9.30;99.90;;;;;;4973262;28;20086;-81
2024/01/30 07:57:35;;;;;;;8.30;3.47;;;9.40;99.90;;;;;;4973331;29;20027;-81
2024/01/30 08:00:02;;;;;;;13.40;3.55;;;9.50;99.90;;;;;;4973084;29;20043;-81
2024/01/30 08:02:28;;;;;;;6.03;2.85;;;9.50;99.90;;;;;;4974008;29;20019;-81
2024/01/30 08:04:54;;;;;;;13.52;3.05;;;9.50;99.90;;;;;;4974705;29;20032;-81
2024/01/30 08:07:21;;;;;;;7.95;2.85;;;9.60;99.90;;;;;;4974672;29;20047;-81
2024/01/30 08:09:47;;;;;;;10.85;3.10;;;9.70;99.90;;;;;;4973861;29;20031;-81
2024/01/30 08:12:13;;;;;;;8.57;3.03;;;9.70;99.90;;;;;;4973980;29;20098;-81
2024/01/30 08:14:39;;;;;;;18.67;3.55;;;9.70;99.90;;;;;;4972966;28;20031;-81
2024/01/30 08:17:07;;;;;;;8.27;3.83;;;9.80;99.90;;;;;;4974513;29;20016;-81
2024/01/30 08:19:33;;;;;;;7.78;2.65;;;9.90;99.90;;;;;;4974984;29;20034;-81
2024/01/30 08:21:59;;;;;;;11.45;3.15;;;9.80;99.90;;;;;;4973195;29;20024;-81
2024/01/30 08:24:24;;;;;;;22.45;4.63;;;9.90;99.90;;;;;;4973058;28;20043;-82
2024/01/30 08:26:50;;;;;;;11.85;3.55;;;;;;;;;;4973324;29;20027;-82
2024/01/30 08:29:18;;;;;;;7.75;2.67;;;10.00;99.90;;;;;;4972404;29;20023;-81
2024/01/30 08:31:44;;;;;;;8.23;3.05;;;10.00;99.90;;;;;;4973231;29;20031;-81
2024/01/30 08:34:09;;;;;;;11.18;3.20;;;10.00;99.90;;;;;;4972976;29;20023;-81
2024/01/30 08:36:36;;;;;;;8.50;2.60;;;10.10;99.90;;;;;;4971546;29;20126;-81
2024/01/30 08:39:02;;;;;;;12.90;3.90;;;10.10;99.90;;;;;;4971556;29;20114;-81
2024/01/30 08:41:28;;;;;;;8.75;3.13;;;10.10;99.90;;;;;;4971126;29;20015;-81
2024/01/30 08:43:54;;;;;;;9.07;3.63;;;10.10;99.90;;;;;;4971098;29;20027;-81
2024/01/30 08:46:20;;;;;;;11.68;4.15;;;10.20;99.90;;;;;;4972078;29;20095;-81
2024/01/30 08:48:47;;;;;;;11.55;3.85;;;10.20;99.90;;;;;;4970700;29;20071;-81
2024/01/30 08:51:15;;;;;;;11.23;3.20;;;10.30;99.90;;;;;;4968628;28;20003;-79
2024/01/30 08:53:40;;;;;;;16.95;3.60;;;10.20;99.90;;;;;;4972883;29;20014;-79
2024/01/30 08:56:06;;;;;;;8.93;3.15;;;10.30;99.90;;;;;;4969316;29;20032;-81
2024/01/30 08:58:32;;;;;;;13.05;3.83;;;10.40;99.90;;;;;;4973256;29;20031;-81
2024/01/30 09:00:59;;;;;;;8.52;3.30;;;10.40;99.90;;;;;;4973434;29;20031;-81
2024/01/30 09:03:25;;;;;;;9.05;3.20;;;10.50;99.90;;;;;;4971847;29;20086;-81
2024/01/30 09:05:51;;;;;;;9.43;3.00;;;10.50;99.90;;;;;;4972734;29;20023;-81
2024/01/30 09:08:16;;;;;;;10.02;3.15;;;10.40;99.90;;;;;;4972235;29;20023;-81
2024/01/30 09:10:42;;;;;;;7.13;2.67;;;10.50;99.90;;;;;;4973732;29;20024;-81
2024/01/30 09:13:08;;;;;;;10.38;3.55;;;10.50;99.90;;;;;;4972316;29;20030;-80
2024/01/30 09:15:34;;;;;;;10.70;3.47;;;10.50;99.90;;;;;;4973182;29;20051;-81
2024/01/30 09:17:59;;;;;;;7.82;2.60;;;10.40;99.90;;;;;;4972907;29;20020;-82
2024/01/30 09:20:25;;;;;;;5.55;2.97;;;10.50;99.90;;;;;;4972247;29;20019;-81
2024/01/30 09:22:51;;;;;;;12.15;3.53;;;;;;;;;;4972142;29;20024;-81
2024/01/30 09:25:18;;;;;;;17.08;3.63;;;10.50;99.90;;;;;;4972368;29;20031;-81
2024/01/30 09:27:44;;;;;;;9.82;3.00;;;10.50;99.90;;;;;;4972425;29;20031;-81
2024/01/30 09:30:11;;;;;;;11.73;3.30;;;10.50;99.90;;;;;;4972977;28;20087;-81
2024/01/30 09:32:36;;;;;;;14.40;3.60;;;10.50;99.90;;;;;;4972916;29;20028;-81
2024/01/30 09:35:02;;;;;;;12.30;3.70;;;10.50;99.90;;;;;;4973762;28;20015;-81
2024/01/30 09:37:27;;;;;;;10.70;4.00;;;10.60;99.90;;;;;;4975536;29;20016;-80
2024/01/30 09:39:53;;;;;;;9.18;2.72;;;11.10;99.90;;;;;;4977195;29;20121;-81
2024/01/30 09:42:37;;;;;;;11.10;3.08;;;10.70;99.90;;;;;;4973996;29;20034;-79
2024/01/30 09:45:05;;;;;;;7.85;3.72;;;10.80;99.90;;;;;;4974081;29;20171;-81
2024/01/30 09:47:44;;;;;;;16.27;4.95;;;10.80;99.90;;;;;;4974996;29;20027;-81
2024/01/30 09:50:12;;;;;;;6.50;2.47;;;10.80;99.90;;;;;;4975908;29;20030;-81
2024/01/30 09:52:38;;;;;;;8.10;3.33;;;10.90;99.90;;;;;;4975946;29;20034;-81
2024/01/30 09:55:05;;;;;;;11.50;3.15;;;10.90;99.90;;;;;;4975908;29;20026;-81
2024/01/30 09:57:30;;;;;;;12.32;3.80;;;11.00;99.90;;;;;;4976192;28;20024;-81
2024/01/30 09:59:56;;;;;;;8.93;3.90;;;11.00;99.90;;;;;;4976436;29;20024;-81
2024/01/30 10:02:23;;;;;;;8.45;3.10;;;11.00;99.90;;;;;;4977130;29;20031;-81
2024/01/30 10:04:50;;;;;;;9.63;3.17;;;11.10;99.90;;;;;;4976536;29;20020;-81
2024/01/30 10:07:16;;;;;;;8.30;2.90;;;11.10;99.90;;;;;;4976389;29;20028;-81
2024/01/30 10:09:42;;;;;;;13.07;2.95;;;11.20;99.90;;;;;;4975088;29;20067;-81
2024/01/30 10:12:09;;;;;;;9.00;3.97;;;11.30;99.90;;;;;;4973805;29;20023;-81
2024/01/30 10:14:38;;;;;;;9.32;4.38;;;11.40;99.90;;;;;;4975709;29;20499;-81
2024/01/30 10:17:05;;;;;;;9.43;2.97;;;11.50;99.90;;;;;;4975891;29;20027;-81
2024/01/30 10:19:31;;;;;;;10.15;3.70;;;11.40;99.90;;;;;;4974547;29;20070;-81
2024/01/30 10:21:56;;;;;;;17.17;4.28;;;11.40;99.90;;;;;;4975030;29;20024;-81
2024/01/30 10:24:45;;;;;;;5.45;3.00;;;11.50;99.90;;;;;;4976360;29;20027;-81
2024/01/30 10:27:33;;;;;;;8.32;3.00;;;11.50;99.90;;;;;;4961411;28;20398;-80
2024/01/30 10:29:59;;;;;;;12.63;2.58;;;;;;;;;;4973329;29;20035;-80
2024/01/30 10:32:27;;;;;;;10.40;2.75;;;11.50;99.90;;;;;;4974569;29;20023;-81
2024/01/30 10:34:53;;;;;;;14.32;3.47;;;11.50;99.90;;;;;;4975325;29;20055;-81
2024/01/30 10:37:21;;;;;;;13.73;2.50;;;11.50;99.90;;;;;;4974041;28;20035;-81
2024/01/30 10:39:47;;;;;;;7.47;2.42;;;11.40;99.90;;;;;;4974531;28;20027;-81
2024/01/30 10:42:17;;;;;;;10.15;4.18;;;11.40;99.90;;;;;;4974078;29;20030;-81
2024/01/30 10:45:14;;;;;;;7.20;3.13;;;11.40;99.90;;;;;;4975013;29;20019;-81
2024/01/30 10:47:43;;;;;;;12.32;2.60;;;11.40;99.90;;;;;;4974322;28;20027;-81
2024/01/30 10:50:10;;;;;;;12.73;3.03;;;11.40;99.90;;;;;;4973468;29;20023;-81
2024/01/30 10:52:37;;;;;;;11.32;2.88;;;11.40;99.90;;;;;;4974019;29;20110;-81
2024/01/30 10:55:06;;;;;;;7.45;2.17;;;11.40;99.90;;;;;;4973473;29;20033;-80
2024/01/30 10:57:35;;;;;;;9.85;3.03;;;11.40;99.90;;;;;;4974392;28;20062;-81
2024/01/30 11:00:10;;;;;;;11.00;2.88;;;11.40;99.90;;;;;;4974167;29;20022;-81
2024/01/30 11:02:41;;;;;;;5.93;2.22;;;11.40;99.90;;;;;;4973501;29;20034;-81
2024/01/30 11:05:08;;;;;;;6.53;2.65;;;11.40;99.90;;;;;;4973459;29;20015;-81
2024/01/30 11:07:34;;;;;;;5.00;2.08;;;11.40;99.90;;;;;;4976086;29;20026;-81
2024/01/30 11:10:02;;;;;;;6.32;1.38;;;11.50;99.90;;;;;;4974915;28;20046;-81
2024/01/30 11:12:29;;;;;;;7.60;1.70;;;11.60;99.90;;;;;;4968071;29;20043;-80
2024/01/30 11:15:07;;;;;;;6.53;1.30;;;11.60;99.90;;;;;;4974377;29;20035;-81
2024/01/30 11:17:53;;;;;;;8.10;1.38;;;11.60;99.90;;;;;;4974920;29;20047;-81
2024/01/30 11:20:26;;;;;;;5.40;0.50;;;11.60;99.90;;;;;;4972918;29;20436;-80
2024/01/30 11:22:55;;;;;;;7.18;0.88;;;11.30;99.90;;;;;;4972333;29;20027;-80
2024/01/30 11:25:23;;;;;;;6.72;1.88;;;11.30;99.90;;;;;;4971858;29;20082;-80
2024/01/30 11:27:55;;;;;;;7.53;0.47;;;11.20;99.90;;;;;;4972515;29;20028;-80
2024/01/30 11:30:25;;;;;;;8.73;0.20;;;11.00;99.90;;;;;;4972706;29;20031;-80
2024/01/30 11:33:11;;;;;;;5.18;1.35;;;10.90;99.90;;;;;;4971317;29;20024;-80
2024/01/30 11:35:39;;;;;;;7.15;0.45;;;10.80;99.90;;;;;;4971999;29;20118;-80
2024/01/30 11:38:06;;;;;;;4.65;0.52;;;10.70;99.90;;;;;;4971763;29;20023;-82
2024/01/30 11:40:33;;;;;;;4.85;0.13;;;10.70;99.90;;;;;;4973232;29;20027;-80
2024/01/30 11:43:00;;;;;;;4.15;0.05;;;10.70;99.90;;;;;;4972935;29;20055;-80
2024/01/30 11:45:27;;;;;;;2.90;0.10;;;;;;;;;;4972282;29;20023;-81
2024/01/30 11:47:54;;;;;;;1.38;0.15;;;10.70;99.90;;;;;;4972628;29;20027;-80
2024/01/30 11:50:20;;;;;;;2.60;0.30;;;10.80;99.90;;;;;;4972151;29;20015;-80
2024/01/30 11:52:46;;;;;;;6.13;0.20;;;10.80;99.90;;;;;;4973756;29;20047;-80
2024/01/30 11:55:13;;;;;;;1.83;0.43;;;10.70;99.90;;;;;;4970694;29;20031;-80
2024/01/30 11:57:39;;;;;;;4.32;1.35;;;10.70;99.90;;;;;;4969938;28;20019;-81
2024/01/30 12:00:10;;;;;;;5.95;0.50;;;10.50;99.90;;;;;;4971915;29;20016;-81
2024/01/30 12:02:42;;;;;;;5.18;0.85;;;10.40;99.90;;;;;;4972783;29;20026;-79
2024/01/30 12:05:11;;;;;;;1.92;0.20;;;10.40;99.90;;;;;;4969847;29;20023;-81
2024/01/30 12:07:37;;;;;;;;;;;10.30;99.90;;;;;;4969408;29;20038;-81
2024/01/30 12:10:03;;;;;;;6.35;1.02;;;10.20;99.90;;;;;;4971505;29;19937;-81
2024/01/30 12:12:29;;;;;;;5.13;0.35;;;10.10;99.90;;;;;;4970138;29;20027;-81
2024/01/30 12:14:56;;;;;;;4.57;0.10;;;10.00;99.90;;;;;;4970514;29;20035;-81
2024/01/30 12:17:32;;;;;;;1.60;0.13;;;9.60;99.90;;;;;;4969022;29;20515;-81
2024/01/30 12:20:09;;;;;;;6.10;0.75;;;9.60;99.90;;;;;;4969293;29;20027;-81
2024/01/30 12:22:42;;;;;;;4.00;0.30;;;9.50;99.90;;;;;;4968391;29;20027;-81
2024/01/30 12:25:13;;;;;;;2.60;0.00;;;9.60;99.90;;;;;;4968907;29;20034;-80
2024/01/30 12:27:41;;;;;;;3.55;0.15;;;9.60;99.90;;;;;;4969989;29;20023;-80
2024/01/30 12:30:08;;;;;;;2.13;0.00;;;9.60;99.90;;;;;;4968913;29;20019;-81
2024/01/30 12:32:36;;;;;;;3.55;0.10;;;9.60;99.90;;;;;;4967046;29;20030;-81
2024/01/30 12:35:02;;;;;;;3.72;0.40;;;9.50;99.90;;;;;;4968832;29;20061;-79
2024/01/30 12:37:29;;;;;;;8.32;0.65;;;9.60;99.90;;;;;;4968134;29;20075;-80
2024/01/30 12:39:55;;;;;;;1.90;0.00;;;9.60;99.90;;;;;;4961821;29;20030;-83
2024/01/30 12:42:24;;;;;;;4.60;0.40;;;9.60;99.90;;;;;;4960405;29;20027;-83
2024/01/30 12:44:50;;;;;;;3.30;0.10;;;9.60;99.90;;;;;;4960473;29;20028;-82
2024/01/30 12:47:19;;;;;;;3.63;0.47;;;9.60;99.90;;;;;;4960784;29;20185;-82
2024/01/30 12:49:44;;;;;;;4.20;0.38;;;9.60;99.90;;;;;;4960830;29;20118;-82